Terminal Aerodrome Forecast
Issued by NWS

Home | Current Version | Previous Version | Text Only | Print | Product List | Glossary On
Versions: 1 2 3 4 5 6 7 8 9 10 11 12 13 14 15 16 17 18 19 20 21 22
000
FTUS41 KOKX 260200 AAA
TAFSWF
TAF AMD
KSWF 260204Z 2602/2706 28010KT P6SM FEW045
      TEMPO 2602/2603 28010G16KT
     FM260500 27006KT P6SM SKC
     FM261400 28009KT P6SM SCT020
     FM262200 27007KT P6SM SKC
      AMD NOT SKED=

USA.gov is the U.S. government's official web portal to all federal, state and local government web resources and services.